Time;durP1;ratioP1;P1;durP2;ratioP2;P2;SDS_P1;SDS_P2;PMS_P1;PMS_P2;Temp;Humidity;BMP_temperature;BMP_pressure;BME280_temperature;BME280_humidity;BME280_pressure;Samples;Min_cycle;Max_cycle;Signal;HPM_P1;HPM_P2
2022/11/28 07:08:19;;;;;;;19.93;11.80;;;3.40;99.90;;;;;;5085445;28;20541;-65
2022/11/28 07:10:45;;;;;;;21.03;14.10;;;3.40;99.90;;;;;;5064513;28;20823;-66
2022/11/28 07:13:11;;;;;;;21.40;12.03;;;3.40;99.90;;;;;;5072845;28;20215;-66
2022/11/28 07:15:36;;;;;;;28.10;13.67;;;3.40;99.90;;;;;;5068701;28;20182;-66
2022/11/28 07:18:02;;;;;;;27.07;14.00;;;3.50;99.90;;;;;;5073103;28;20193;-66
2022/11/28 07:20:27;;;;;;;22.83;12.30;;;3.40;99.90;;;;;;5076834;28;20613;-66
2022/11/28 07:22:53;;;;;;;25.10;14.07;;;3.50;99.90;;;;;;5083989;28;20188;-66
2022/11/28 07:25:18;;;;;;;17.20;12.20;;;3.50;99.90;;;;;;5078769;28;20217;-66
2022/11/28 07:27:44;;;;;;;21.07;13.50;;;3.50;99.90;;;;;;5074287;28;20585;-66
2022/11/28 07:30:10;;;;;;;20.40;12.47;;;3.50;99.90;;;;;;5072406;28;20182;-67
2022/11/28 07:32:39;;;;;;;30.93;14.73;;;3.50;99.90;;;;;;5083145;28;20652;-67
2022/11/28 07:35:07;;;;;;;25.90;12.70;;;3.50;99.90;;;;;;5070432;28;20586;-67
2022/11/28 07:37:32;;;;;;;25.80;15.60;;;3.60;99.90;;;;;;5082707;28;20443;-67
2022/11/28 07:39:58;;;;;;;25.60;13.43;;;3.60;99.90;;;;;;5073805;28;20510;-66
2022/11/28 07:42:23;;;;;;;23.43;13.17;;;3.60;99.90;;;;;;5072601;28;20181;-66
2022/11/28 07:44:49;;;;;;;18.97;12.57;;;3.70;99.90;;;;;;5075211;28;20189;-67
2022/11/28 07:47:14;;;;;;;18.93;11.47;;;3.60;99.90;;;;;;5084509;28;20662;-66
2022/11/28 07:49:40;;;;;;;20.67;12.60;;;3.70;99.90;;;;;;5074879;28;20175;-66
2022/11/28 07:52:05;;;;;;;23.57;14.30;;;3.70;99.90;;;;;;5076428;28;20178;-66
2022/11/28 07:54:31;;;;;;;20.77;12.63;;;3.80;99.90;;;;;;5080930;28;20169;-66
2022/11/28 07:56:57;;;;;;;24.47;12.40;;;3.80;99.90;;;;;;5070425;28;20206;-67
2022/11/28 07:59:22;;;;;;;18.77;13.73;;;3.80;99.90;;;;;;5071738;28;20661;-66
2022/11/28 08:01:48;;;;;;;23.23;14.27;;;3.90;99.90;;;;;;5075851;28;20553;-67
2022/11/28 08:04:13;;;;;;;21.43;14.07;;;3.80;99.90;;;;;;5083326;28;20185;-67
2022/11/28 08:06:41;;;;;;;17.30;11.70;;;3.80;99.90;;;;;;5079468;28;20589;-67
2022/11/28 08:09:07;;;;;;;15.43;13.07;;;3.90;99.90;;;;;;5083366;28;20320;-66
2022/11/28 08:11:33;;;;;;;19.20;12.53;;;3.90;99.90;;;;;;5066655;28;20443;-67
2022/11/28 08:14:00;;;;;;;21.40;11.50;;;4.00;99.90;;;;;;5069552;28;20848;-67
2022/11/28 08:16:27;;;;;;;18.40;11.33;;;4.00;99.90;;;;;;5060953;28;20503;-66
2022/11/28 08:18:53;;;;;;;12.40;9.57;;;4.00;99.90;;;;;;5063795;28;20421;-66
2022/11/28 08:21:25;;;;;;;17.47;10.40;;;4.00;99.90;;;;;;5071200;28;20420;-66
2022/11/28 08:23:53;;;;;;;19.90;10.90;;;4.00;99.90;;;;;;5064823;28;20427;-66
2022/11/28 08:26:21;;;;;;;19.73;13.37;;;4.00;99.90;;;;;;5070170;28;20444;-66
2022/11/28 08:28:49;;;;;;;19.20;13.80;;;4.00;99.90;;;;;;5054684;28;20429;-66
2022/11/28 08:31:23;;;;;;;20.00;12.20;;;4.00;99.90;;;;;;5051248;28;20498;-66
2022/11/28 08:33:50;;;;;;;18.80;12.57;;;4.10;99.90;;;;;;5066304;28;20462;-67
2022/11/28 08:36:18;;;;;;;18.13;12.07;;;4.10;99.90;;;;;;5062957;28;20421;-66
2022/11/28 08:38:45;;;;;;;20.40;12.57;;;4.10;99.90;;;;;;5069550;28;20802;-66
2022/11/28 08:41:13;;;;;;;23.43;13.33;;;4.20;99.90;;;;;;5046128;28;20472;-66
2022/11/28 08:43:39;;;;;;;21.20;13.73;;;4.20;99.90;;;;;;5046530;28;20440;-66
2022/11/28 08:46:12;;;;;;;22.63;12.97;;;4.30;99.90;;;;;;5060616;28;20426;-66
2022/11/28 08:48:38;;;;;;;22.83;13.17;;;4.20;99.90;;;;;;5067280;28;20428;-67
2022/11/28 08:51:04;;;;;;;19.63;13.10;;;4.30;99.90;;;;;;5059527;28;20410;-67
2022/11/28 08:53:31;;;;;;;28.63;11.50;;;4.30;99.90;;;;;;5058820;28;20412;-67
2022/11/28 08:55:56;;;;;;;27.57;14.53;;;4.40;99.90;;;;;;5058825;28;20409;-67
2022/11/28 08:58:22;;;;;;;22.00;12.90;;;4.40;99.90;;;;;;5058662;28;20434;-67
2022/11/28 09:00:48;;;;;;;19.70;12.50;;;4.40;99.90;;;;;;5045545;28;20186;-66
2022/11/28 09:03:16;;;;;;;23.30;10.90;;;4.40;99.90;;;;;;5056567;28;20186;-67
2022/11/28 09:05:44;;;;;;;24.90;12.63;;;4.50;99.90;;;;;;5051569;28;20207;-67
2022/11/28 09:08:10;;;;;;;20.90;13.07;;;4.70;99.90;;;;;;5059416;28;20487;-66
2022/11/28 09:10:36;;;;;;;21.73;11.90;;;4.70;99.90;;;;;;5061139;28;20410;-66
2022/11/28 09:13:03;;;;;;;22.43;12.80;;;4.60;99.90;;;;;;5066660;28;20178;-66
2022/11/28 09:15:28;;;;;;;18.00;11.53;;;4.50;99.90;;;;;;5063374;28;20414;-66
2022/11/28 09:17:54;;;;;;;16.10;12.50;;;4.60;99.90;;;;;;5067404;28;20456;-66
2022/11/28 09:20:20;;;;;;;19.03;12.33;;;4.70;99.90;;;;;;5061252;28;20185;-66
2022/11/28 09:22:46;;;;;;;18.60;11.70;;;4.70;99.90;;;;;;5069680;28;20190;-66
2022/11/28 09:25:13;;;;;;;24.80;11.23;;;4.80;99.90;;;;;;5056278;28;20494;-65
2022/11/28 09:27:38;;;;;;;15.10;10.00;;;4.80;99.90;;;;;;5060399;28;20229;-66
2022/11/28 09:30:05;;;;;;;18.97;11.70;;;4.80;99.90;;;;;;5061951;28;20414;-69
2022/11/28 09:32:32;;;;;;;19.47;11.77;;;4.80;99.90;;;;;;5045126;28;20242;-68
2022/11/28 09:34:57;;;;;;;18.90;12.47;;;4.80;99.90;;;;;;5043878;28;20521;-66
2022/11/28 09:37:23;;;;;;;22.50;11.43;;;4.90;99.90;;;;;;5059414;28;20519;-67
2022/11/28 09:39:50;;;;;;;22.23;11.27;;;4.80;99.90;;;;;;5057579;28;20179;-66
2022/11/28 09:42:27;;;;;;;19.80;12.00;;;4.80;99.90;;;;;;5056796;28;20182;-66
2022/11/28 09:45:01;;;;;;;24.90;12.50;;;4.80;99.90;;;;;;5055846;28;20870;-66
2022/11/28 09:47:31;;;;;;;18.47;12.73;;;4.90;99.90;;;;;;5068884;28;20482;-66
2022/11/28 09:50:13;;;;;;;23.33;13.90;;;5.00;99.90;;;;;;5059249;28;20412;-66
2022/11/28 09:52:53;;;;;;;20.67;12.87;;;5.00;99.90;;;;;;5060881;28;20417;-66
2022/11/28 09:55:33;;;;;;;19.67;13.00;;;5.00;99.90;;;;;;5042940;28;20908;-65
2022/11/28 09:58:03;;;;;;;18.77;11.10;;;5.00;99.90;;;;;;5068540;28;20450;-65
2022/11/28 10:01:09;;;;;;;21.87;12.00;;;5.10;99.90;;;;;;5060126;28;20426;-66
2022/11/28 10:03:52;;;;;;;21.67;11.70;;;5.10;99.90;;;;;;5052616;28;20910;-65
2022/11/28 10:06:52;;;;;;;19.20;12.57;;;5.20;99.90;;;;;;5064490;28;20841;-66
2022/11/28 10:09:32;;;;;;;19.83;12.90;;;5.20;99.90;;;;;;5059847;28;20432;-66
2022/11/28 10:12:09;;;;;;;17.40;11.40;;;5.20;99.90;;;;;;5056951;28;20428;-65
2022/11/28 10:15:02;;;;;;;16.93;12.10;;;5.30;99.90;;;;;;5064999;28;20412;-65
2022/11/28 10:17:49;;;;;;;19.47;11.57;;;5.30;99.90;;;;;;5042907;28;20516;-65
2022/11/28 10:20:22;;;;;;;22.97;12.07;;;5.40;99.90;;;;;;5048140;28;20422;-65
2022/11/28 10:23:01;;;;;;;19.23;11.30;;;5.50;99.90;;;;;;5064215;28;20419;-65
2022/11/28 10:25:58;;;;;;;19.17;13.13;;;5.60;99.90;;;;;;5059460;28;20415;-65
2022/11/28 10:28:55;;;;;;;22.50;11.53;;;5.60;99.90;;;;;;5028608;28;20535;-65
2022/11/28 10:31:29;;;;;;;27.93;13.00;;;5.70;99.90;;;;;;5020113;28;20534;-65
2022/11/28 10:34:00;;;;;;;21.80;13.47;;;5.70;99.90;;;;;;5035399;28;20503;-66
2022/11/28 10:36:43;;;;;;;21.63;13.03;;;5.60;99.90;;;;;;5024889;28;20422;-65
2022/11/28 10:39:11;;;;;;;20.63;12.00;;;5.70;99.90;;;;;;5031315;28;20928;-65
2022/11/28 10:41:45;;;;;;;20.93;12.63;;;5.80;99.90;;;;;;5037921;28;21009;-65
2022/11/28 10:44:28;;;;;;;24.07;11.53;;;5.80;99.90;;;;;;5042444;28;20426;-65
2022/11/28 10:47:12;;;;;;;23.80;14.27;;;5.70;99.90;;;;;;5032948;28;20473;-65
2022/11/28 10:50:18;;;;;;;22.30;12.00;;;5.80;99.90;;;;;;5029022;28;20766;-65
2022/11/28 10:53:00;;;;;;;23.27;13.80;;;5.80;99.90;;;;;;5029708;28;20513;-65
2022/11/28 10:55:32;;;;;;;25.97;12.97;;;5.80;99.90;;;;;;5030258;28;20412;-71
2022/11/28 10:58:06;;;;;;;19.77;12.07;;;5.80;99.90;;;;;;5044149;28;20430;-65
2022/11/28 11:00:34;;;;;;;21.17;12.63;;;5.90;99.90;;;;;;5029337;28;20413;-66
2022/11/28 11:03:01;;;;;;;22.73;13.70;;;6.00;99.90;;;;;;5032501;28;20876;-66
2022/11/28 11:05:33;;;;;;;21.00;13.73;;;5.90;99.90;;;;;;5039185;28;20410;-65
2022/11/28 11:08:24;;;;;;;24.47;13.17;;;5.80;99.90;;;;;;5029890;28;20501;-66
2022/11/28 11:10:58;;;;;;;20.23;11.83;;;5.80;99.90;;;;;;5031505;28;20423;-66
2022/11/28 11:13:30;;;;;;;25.50;11.73;;;5.90;99.90;;;;;;5039831;28;20412;-65
2022/11/28 11:16:03;;;;;;;19.30;12.07;;;5.90;99.90;;;;;;5033934;28;20980;-65
2022/11/28 11:18:30;;;;;;;21.43;11.00;;;5.90;99.90;;;;;;5038655;28;20436;-65
2022/11/28 11:21:14;;;;;;;19.03;11.57;;;5.90;99.90;;;;;;5038291;28;20936;-65
2022/11/28 11:23:40;;;;;;;21.47;14.20;;;5.90;99.90;;;;;;5035609;28;20785;-66
2022/11/28 11:26:10;;;;;;;18.50;12.20;;;6.00;99.90;;;;;;5027286;28;20488;-65
2022/11/28 11:28:38;;;;;;;25.67;12.53;;;5.90;99.90;;;;;;5027577;28;20835;-66
2022/11/28 11:31:14;;;;;;;20.27;12.50;;;5.90;99.90;;;;;;5022342;28;20418;-66
2022/11/28 11:33:40;;;;;;;14.53;10.03;;;5.90;99.90;;;;;;5040309;28;20544;-66
2022/11/28 11:36:21;;;;;;;22.17;12.63;;;6.00;99.90;;;;;;5023811;28;20423;-64
2022/11/28 11:38:47;;;;;;;15.73;11.70;;;6.10;99.90;;;;;;5041023;28;20793;-65
2022/11/28 11:41:26;;;;;;;23.80;12.33;;;6.20;99.90;;;;;;5031856;28;20422;-65
2022/11/28 11:43:51;;;;;;;18.20;11.17;;;6.20;99.90;;;;;;5038094;28;20413;-65
2022/11/28 11:46:17;;;;;;;18.63;13.63;;;6.20;99.90;;;;;;5035302;28;20924;-64
2022/11/28 11:48:46;;;;;;;18.33;12.20;;;6.20;99.90;;;;;;5036686;28;20668;-64
2022/11/28 11:51:22;;;;;;;17.67;12.13;;;6.30;99.90;;;;;;5038915;28;20675;-66
2022/11/28 11:53:58;;;;;;;24.30;12.83;;;6.30;99.90;;;;;;5034431;28;20769;-65
2022/11/28 11:56:24;;;;;;;19.27;11.17;;;6.50;99.90;;;;;;5028046;28;20421;-65
2022/11/28 11:58:52;;;;;;;22.23;12.17;;;6.50;99.90;;;;;;5039384;28;20776;-65
2022/11/28 12:01:20;;;;;;;18.17;11.37;;;6.60;99.90;;;;;;5039598;28;20444;-65
2022/11/28 12:04:00;;;;;;;18.80;11.30;;;6.60;99.90;;;;;;5036994;28;20411;-65
2022/11/28 12:06:36;;;;;;;23.77;11.97;;;6.70;99.90;;;;;;5025015;28;20569;-65
2022/11/28 12:09:18;;;;;;;15.57;9.73;;;6.70;99.90;;;;;;5035431;28;20997;-65
2022/11/28 12:11:52;;;;;;;22.57;10.67;;;6.70;99.90;;;;;;5029203;28;20418;-64
2022/11/28 12:14:31;;;;;;;17.80;10.80;;;6.70;99.90;;;;;;5031943;28;20697;-64
2022/11/28 12:17:31;;;;;;;15.63;10.30;;;6.70;99.90;;;;;;5037404;28;20763;-64
2022/11/28 12:20:18;;;;;;;15.70;10.70;;;6.70;99.90;;;;;;5016088;28;20749;-64
2022/11/28 12:23:13;;;;;;;17.07;10.80;;;6.70;99.90;;;;;;5036959;28;20414;-64
2022/11/28 12:25:59;;;;;;;13.80;10.07;;;6.70;99.90;;;;;;5034052;28;20418;-64
2022/11/28 12:28:56;;;;;;;16.87;9.90;;;6.60;99.90;;;;;;5042978;28;20522;-65
2022/11/28 12:31:36;;;;;;;17.37;10.60;;;6.60;99.90;;;;;;5028705;28;20476;-66
2022/11/28 12:34:39;;;;;;;19.57;11.30;;;6.50;99.90;;;;;;5027422;28;20436;-66
2022/11/28 12:37:08;;;;;;;16.57;10.90;;;6.40;99.90;;;;;;5020826;28;20794;-66
2022/11/28 12:39:39;;;;;;;17.37;11.50;;;6.30;99.90;;;;;;5040028;28;20414;-66
2022/11/28 12:42:28;;;;;;;22.80;11.87;;;6.20;99.90;;;;;;5030399;28;20460;-66
2022/11/28 12:45:18;;;;;;;18.50;11.43;;;6.30;99.90;;;;;;5038375;28;20816;-66
2022/11/28 12:48:08;;;;;;;18.70;10.70;;;6.30;99.90;;;;;;5022483;28;20462;-64
2022/11/28 12:50:41;;;;;;;18.20;9.87;;;6.30;99.90;;;;;;5028917;28;20438;-67
2022/11/28 12:53:35;;;;;;;20.07;12.20;;;6.30;99.90;;;;;;5038564;28;20710;-70
2022/11/28 12:56:24;;;;;;;19.67;10.77;;;6.40;99.90;;;;;;5027893;28;20441;-70
2022/11/28 12:59:07;;;;;;;19.00;10.50;;;6.30;99.90;;;;;;5041612;28;20893;-65
2022/11/28 13:02:00;;;;;;;22.40;11.83;;;6.40;99.90;;;;;;5043538;28;20421;-63
2022/11/28 13:05:10;;;;;;;21.37;14.87;;;6.40;99.90;;;;;;5028429;28;20476;-64
2022/11/28 13:07:49;;;;;;;23.20;15.33;;;6.30;99.90;;;;;;5034726;28;20474;-65
2022/11/28 13:10:50;;;;;;;21.33;15.90;;;6.40;99.90;;;;;;5037329;28;20912;-63
2022/11/28 13:13:25;;;;;;;24.70;14.40;;;6.30;99.90;;;;;;5038625;28;20474;-64
2022/11/28 13:16:18;;;;;;;22.80;13.37;;;6.20;99.90;;;;;;5037244;28;20414;-66
2022/11/28 13:18:52;;;;;;;34.53;20.80;;;6.10;99.90;;;;;;5040614;28;20428;-70
2022/11/28 13:21:50;;;;;;;22.20;14.90;;;6.10;99.90;;;;;;5032673;28;20993;-63
2022/11/28 13:24:32;;;;;;;31.57;16.83;;;6.00;99.90;;;;;;5034465;28;20423;-64
2022/11/28 13:27:22;;;;;;;26.43;15.50;;;5.90;99.90;;;;;;5040386;28;20468;-64
2022/11/28 13:30:15;;;;;;;23.43;15.77;;;5.90;99.90;;;;;;5038327;28;20410;-69
2022/11/28 13:32:57;;;;;;;22.43;14.30;;;5.90;99.90;;;;;;5033727;28;20411;-71
2022/11/28 13:35:23;;;;;;;38.50;18.73;;;5.90;99.90;;;;;;5026151;28;20529;-64
2022/11/28 13:38:03;;;;;;;32.17;20.83;;;5.90;99.90;;;;;;5032867;28;20457;-68
2022/11/28 13:40:37;;;;;;;44.57;22.13;;;5.90;99.90;;;;;;5041851;28;20421;-64
2022/11/28 13:43:15;;;;;;;46.40;25.30;;;5.80;99.90;;;;;;5033696;28;20417;-66
2022/11/28 13:45:42;;;;;;;26.63;16.97;;;5.80;99.90;;;;;;5032096;28;20429;-64
2022/11/28 13:48:33;;;;;;;33.53;17.47;;;5.80;99.90;;;;;;5020872;28;20478;-65
2022/11/28 13:51:23;;;;;;;25.60;18.17;;;5.70;99.90;;;;;;5034518;28;20410;-64
2022/11/28 13:54:18;;;;;;;33.30;18.20;;;5.70;99.90;;;;;;5041263;28;21010;-64
2022/11/28 13:57:23;;;;;;;31.87;21.10;;;5.70;99.90;;;;;;5027890;28;20944;-64
2022/11/28 14:00:17;;;;;;;33.57;17.50;;;5.70;99.90;;;;;;5037127;28;20429;-63
2022/11/28 14:02:46;;;;;;;49.67;25.47;;;5.60;99.90;;;;;;5021088;28;20488;-70
2022/11/28 14:05:24;;;;;;;35.60;20.83;;;5.60;99.90;;;;;;5034145;28;20824;-65
2022/11/28 14:07:50;;;;;;;30.50;20.17;;;5.60;99.90;;;;;;5035281;28;20493;-66
2022/11/28 14:10:21;;;;;;;35.63;19.20;;;5.50;99.90;;;;;;5036110;28;20504;-65
2022/11/28 14:12:57;;;;;;;32.73;19.03;;;5.50;99.90;;;;;;5039501;28;20502;-65
2022/11/28 14:15:36;;;;;;;35.67;21.33;;;5.40;99.90;;;;;;5007592;28;20540;-65
2022/11/28 14:18:19;;;;;;;34.17;18.20;;;5.40;99.90;;;;;;5027535;28;20445;-64
2022/11/28 14:20:58;;;;;;;39.27;19.77;;;5.40;99.90;;;;;;5031747;28;20422;-65
2022/11/28 14:23:42;;;;;;;34.57;18.60;;;5.40;99.90;;;;;;5033441;28;20419;-65
2022/11/28 14:26:33;;;;;;;36.23;19.63;;;5.30;99.90;;;;;;5024678;28;20793;-71
2022/11/28 14:29:00;;;;;;;33.03;20.47;;;5.20;99.90;;;;;;5030722;28;20409;-65
2022/11/28 14:31:32;;;;;;;39.90;21.97;;;5.20;99.90;;;;;;5007647;28;20439;-65
2022/11/28 14:34:03;;;;;;;44.47;27.10;;;5.10;99.90;;;;;;5021222;28;20529;-65
2022/11/28 14:36:29;;;;;;;43.53;19.77;;;5.10;99.90;;;;;;5027850;28;20491;-65
2022/11/28 14:39:15;;;;;;;33.63;20.83;;;5.00;99.90;;;;;;5027913;28;20478;-64
2022/11/28 14:42:02;;;;;;;35.30;19.17;;;5.00;99.90;;;;;;5027752;28;20233;-64
2022/11/28 14:44:49;;;;;;;27.40;17.57;;;5.00;99.90;;;;;;5032740;28;20512;-64
2022/11/28 14:47:57;;;;;;;40.90;22.67;;;4.90;99.90;;;;;;5023885;28;20490;-66
2022/11/28 14:50:19;;;;;;;35.73;20.50;;;4.90;99.90;;;;;;5022271;28;20407;-64
2022/11/28 14:52:46;;;;;;;40.57;19.87;;;4.80;99.90;;;;;;5039111;28;20409;-65
2022/11/28 14:55:24;;;;;;;29.80;19.80;;;4.80;99.90;;;;;;5026860;28;20772;-62
2022/11/28 14:57:52;;;;;;;37.90;20.47;;;4.80;99.90;;;;;;5013218;28;20481;-65
2022/11/28 15:00:23;;;;;;;34.63;20.27;;;4.80;99.90;;;;;;5032130;28;20448;-65
2022/11/28 15:03:25;;;;;;;44.57;25.80;;;4.80;99.90;;;;;;5025282;28;20422;-65
2022/11/28 15:06:09;;;;;;;35.50;21.13;;;4.80;99.90;;;;;;5025697;28;20418;-65
2022/11/28 15:08:55;;;;;;;37.63;20.53;;;4.80;99.90;;;;;;5026800;28;20438;-65
2022/11/28 15:11:24;;;;;;;42.50;20.80;;;4.70;99.90;;;;;;5015920;28;20415;-65
2022/11/28 15:14:18;;;;;;;32.60;20.67;;;4.70;99.90;;;;;;5026600;28;20571;-65
2022/11/28 15:16:47;;;;;;;32.90;19.67;;;4.60;99.90;;;;;;5019746;28;20443;-66
2022/11/28 15:19:30;;;;;;;34.90;19.50;;;4.60;99.90;;;;;;5028372;28;20481;-63
2022/11/28 15:21:56;;;;;;;28.83;18.00;;;4.60;99.90;;;;;;5034188;28;20428;-65
2022/11/28 15:24:36;;;;;;;30.40;20.20;;;4.60;99.90;;;;;;5032596;28;20424;-65
2022/11/28 15:27:24;;;;;;;37.90;22.77;;;4.50;99.90;;;;;;5017639;28;20465;-65
2022/11/28 15:29:55;;;;;;;42.07;22.27;;;4.50;99.90;;;;;;5033136;28;20441;-65
2022/11/28 15:32:21;;;;;;;32.17;18.87;;;4.50;99.90;;;;;;5036777;28;20424;-65
2022/11/28 15:34:59;;;;;;;33.60;18.53;;;4.50;99.90;;;;;;5031664;28;20417;-65
2022/11/28 15:37:34;;;;;;;38.10;22.80;;;4.50;99.90;;;;;;5038316;28;20444;-64
2022/11/28 15:40:03;;;;;;;29.83;18.90;;;4.50;99.90;;;;;;5029547;28;20417;-64
2022/11/28 15:42:33;;;;;;;45.10;24.40;;;4.50;99.90;;;;;;5032225;28;20421;-64
2022/11/28 15:45:19;;;;;;;33.50;18.10;;;4.50;99.90;;;;;;5024149;28;20967;-67
2022/11/28 15:47:47;;;;;;;27.17;17.97;;;4.40;99.90;;;;;;5037791;28;20625;-64
2022/11/28 15:50:15;;;;;;;34.53;21.27;;;4.40;99.90;;;;;;5023536;28;20783;-64
2022/11/28 15:52:58;;;;;;;32.87;20.33;;;4.40;99.90;;;;;;5040750;28;20437;-64
2022/11/28 15:55:26;;;;;;;37.60;24.40;;;4.40;99.90;;;;;;5031876;28;20419;-63
2022/11/28 15:58:16;;;;;;;42.37;25.77;;;4.40;99.90;;;;;;5037514;28;20430;-64
2022/11/28 16:00:46;;;;;;;27.80;18.00;;;4.40;99.90;;;;;;5030184;28;20429;-64
2022/11/28 16:03:21;;;;;;;40.40;21.90;;;4.30;99.90;;;;;;5021357;28;20421;-65
2022/11/28 16:05:49;;;;;;;34.90;20.63;;;4.30;99.90;;;;;;5035459;28;20497;-65
2022/11/28 16:08:34;;;;;;;34.13;19.80;;;4.30;99.90;;;;;;5036612;28;21065;-65
2022/11/28 16:11:02;;;;;;;38.53;19.53;;;4.20;99.90;;;;;;5029889;28;20872;-64
2022/11/28 16:13:30;;;;;;;33.70;16.80;;;4.20;99.90;;;;;;5035654;28;20934;-64
2022/11/28 16:15:58;;;;;;;37.43;18.10;;;4.20;99.90;;;;;;5029329;28;20851;-65
2022/11/28 16:18:25;;;;;;;28.67;18.43;;;4.20;99.90;;;;;;5035351;28;20429;-64
2022/11/28 16:20:51;;;;;;;33.03;19.77;;;4.20;99.90;;;;;;5025477;28;20454;-65
2022/11/28 16:23:22;;;;;;;32.73;20.57;;;4.10;99.90;;;;;;5030006;28;20994;-65
2022/11/28 16:26:04;;;;;;;29.30;18.47;;;4.10;99.90;;;;;;5026130;28;20625;-67
2022/11/28 16:28:35;;;;;;;30.43;18.57;;;4.10;99.90;;;;;;5020435;28;21062;-65
2022/11/28 16:31:08;;;;;;;34.33;18.80;;;4.10;99.90;;;;;;5015735;28;20448;-65
2022/11/28 16:33:42;;;;;;;33.10;17.50;;;4.00;99.90;;;;;;5020869;28;20482;-65
2022/11/28 16:36:23;;;;;;;33.37;17.00;;;4.00;99.90;;;;;;5000590;28;20829;-65
2022/11/28 16:39:03;;;;;;;28.53;17.03;;;4.00;99.90;;;;;;5002736;28;20419;-65
2022/11/28 16:41:30;;;;;;;34.70;18.70;;;4.00;99.90;;;;;;5017360;28;20927;-64
2022/11/28 16:44:21;;;;;;;29.00;18.60;;;3.90;99.90;;;;;;5007664;28;20822;-65
2022/11/28 16:46:57;;;;;;;28.20;17.03;;;3.90;99.90;;;;;;5018963;28;20488;-65
2022/11/28 16:49:50;;;;;;;35.50;21.73;;;3.90;99.90;;;;;;5013249;28;20886;-66
2022/11/28 16:52:22;;;;;;;30.50;18.60;;;3.80;99.90;;;;;;5015169;28;20410;-65
2022/11/28 16:54:53;;;;;;;40.07;18.00;;;3.80;99.90;;;;;;5010783;28;20443;-65
2022/11/28 16:57:19;;;;;;;30.17;17.07;;;3.80;99.90;;;;;;5007491;28;20449;-65
2022/11/28 16:59:47;;;;;;;36.43;20.20;;;3.80;99.90;;;;;;5019092;28;20413;-65
2022/11/28 17:02:17;;;;;;;35.13;20.47;;;3.80;99.90;;;;;;5005450;28;20476;-65
2022/11/28 17:04:44;;;;;;;33.77;17.40;;;3.80;99.90;;;;;;5021547;28;20456;-64
2022/11/28 17:07:13;;;;;;;35.77;18.47;;;3.80;99.90;;;;;;5009736;28;20506;-64
2022/11/28 17:09:40;;;;;;;44.13;20.30;;;3.70;99.90;;;;;;5014235;28;20414;-65
2022/11/28 17:12:25;;;;;;;35.33;20.43;;;3.70;99.90;;;;;;5011933;28;20440;-65
2022/11/28 17:14:51;;;;;;;37.63;18.60;;;3.70;99.90;;;;;;5007366;28;21103;-66
2022/11/28 17:17:18;;;;;;;33.63;18.90;;;3.70;99.90;;;;;;5009441;28;20468;-66
2022/11/28 17:19:44;;;;;;;32.87;19.67;;;3.70;99.90;;;;;;5008368;28;20305;-65
2022/11/28 17:22:18;;;;;;;40.43;19.90;;;3.80;99.90;;;;;;5015170;28;20419;-65
2022/11/28 17:24:44;;;;;;;38.77;21.43;;;3.80;99.90;;;;;;5006559;28;21290;-66
2022/11/28 17:27:11;;;;;;;33.90;18.67;;;3.80;99.90;;;;;;5013204;28;20465;-66
2022/11/28 17:29:37;;;;;;;34.47;18.53;;;3.80;99.90;;;;;;5005021;28;20450;-65
2022/11/28 17:32:03;;;;;;;38.13;20.13;;;3.80;99.90;;;;;;5012573;28;20418;-64
2022/11/28 17:34:31;;;;;;;39.53;20.10;;;3.80;99.90;;;;;;5006919;28;20971;-65
2022/11/28 17:36:58;;;;;;;32.00;20.60;;;4.00;99.90;;;;;;5009568;28;20202;-65
2022/11/28 17:39:24;;;;;;;35.77;20.10;;;3.90;99.90;;;;;;4989774;28;20431;-66
2022/11/28 17:41:50;;;;;;;37.10;21.80;;;3.90;99.90;;;;;;5010842;28;20988;-65
2022/11/28 17:44:20;;;;;;;33.30;20.23;;;3.90;99.90;;;;;;5007006;28;20789;-65
2022/11/28 17:46:47;;;;;;;34.07;19.30;;;3.90;99.90;;;;;;5009441;28;20556;-65
2022/11/28 17:49:13;;;;;;;32.63;20.57;;;3.80;99.90;;;;;;5004026;28;20429;-65
2022/11/28 17:51:39;;;;;;;42.80;19.17;;;3.90;99.90;;;;;;4995328;28;20603;-65
2022/11/28 17:54:05;;;;;;;37.63;19.93;;;3.80;99.90;;;;;;5009718;28;20518;-65
2022/11/28 17:56:31;;;;;;;42.20;22.23;;;3.90;99.90;;;;;;5010634;28;20470;-66
2022/11/28 17:59:00;;;;;;;40.10;20.90;;;3.90;99.90;;;;;;5011469;28;20524;-65
2022/11/28 18:01:29;;;;;;;38.47;19.90;;;3.90;99.90;;;;;;5007758;28;20478;-65
2022/11/28 18:03:54;;;;;;;36.40;19.90;;;3.90;99.90;;;;;;5011143;28;20435;-65
2022/11/28 18:06:21;;;;;;;36.63;22.87;;;3.90;99.90;;;;;;5008241;28;20736;-64
2022/11/28 18:08:49;;;;;;;40.43;20.13;;;3.90;99.90;;;;;;5014943;28;20764;-66
2022/11/28 18:11:16;;;;;;;41.23;21.77;;;3.80;99.90;;;;;;5017502;28;20417;-66
2022/11/28 18:13:42;;;;;;;38.57;22.20;;;3.80;99.90;;;;;;5008326;28;20418;-65
2022/11/28 18:16:13;;;;;;;40.13;22.40;;;3.80;99.90;;;;;;5008963;28;20532;-65
2022/11/28 18:18:39;;;;;;;43.27;22.90;;;3.80;99.90;;;;;;5011474;28;20478;-65
2022/11/28 18:21:09;;;;;;;35.70;21.00;;;3.80;99.90;;;;;;5012673;28;21016;-65
2022/11/28 18:23:43;;;;;;;40.83;22.10;;;3.90;99.90;;;;;;5012999;28;20423;-67
2022/11/28 18:26:10;;;;;;;44.97;23.03;;;3.80;99.90;;;;;;5007313;28;20496;-65
2022/11/28 18:28:36;;;;;;;41.07;23.77;;;3.90;99.90;;;;;;5001045;28;20848;-65
2022/11/28 18:31:15;;;;;;;37.90;22.47;;;3.80;99.90;;;;;;5009226;28;20513;-66
2022/11/28 18:33:41;;;;;;;36.70;21.27;;;3.90;99.90;;;;;;5017462;28;20429;-65
2022/11/28 18:36:15;;;;;;;32.57;21.13;;;3.80;99.90;;;;;;5011316;28;20893;-65
2022/11/28 18:38:43;;;;;;;38.23;21.80;;;3.90;99.90;;;;;;5020598;28;20417;-65
2022/11/28 18:41:10;;;;;;;30.40;19.90;;;3.90;99.90;;;;;;5011842;28;20664;-66
2022/11/28 18:43:36;;;;;;;39.00;22.40;;;3.90;99.90;;;;;;5003668;28;21015;-66
2022/11/28 18:46:05;;;;;;;34.53;19.90;;;3.90;99.90;;;;;;5008765;28;20925;-65
2022/11/28 18:48:51;;;;;;;43.50;22.30;;;3.90;99.90;;;;;;4992424;28;20474;-66
2022/11/28 18:51:19;;;;;;;40.73;21.97;;;3.90;99.90;;;;;;5003679;28;20422;-64
2022/11/28 18:53:45;;;;;;;45.60;24.10;;;3.90;99.90;;;;;;5012279;28;20422;-65
2022/11/28 18:56:11;;;;;;;40.03;19.97;;;3.90;99.90;;;;;;5013147;28;20445;-65
2022/11/28 18:58:39;;;;;;;40.20;21.87;;;3.80;99.90;;;;;;5006702;28;20488;-68
2022/11/28 19:01:24;;;;;;;35.90;21.17;;;3.90;99.90;;;;;;5011521;28;20469;-65
2022/11/28 19:03:52;;;;;;;38.70;22.70;;;3.80;99.90;;;;;;5011194;28;20862;-65
2022/11/28 19:06:18;;;;;;;39.57;22.90;;;3.90;99.90;;;;;;5013785;28;20430;-65
2022/11/28 19:08:44;;;;;;;41.20;21.27;;;3.80;99.90;;;;;;5014967;28;20841;-66
2022/11/28 19:11:13;;;;;;;43.50;23.33;;;3.90;99.90;;;;;;5008686;28;20414;-66
2022/11/28 19:13:44;;;;;;;37.87;20.87;;;3.90;99.90;;;;;;5006537;28;20586;-67
2022/11/28 19:16:15;;;;;;;36.00;22.53;;;3.80;99.90;;;;;;5014512;28;20415;-64
2022/11/28 19:18:41;;;;;;;39.97;22.07;;;3.80;99.90;;;;;;5028170;28;20504;-65
2022/11/28 19:21:15;;;;;;;36.53;23.40;;;3.90;99.90;;;;;;5029753;28;20468;-66
2022/11/28 19:23:42;;;;;;;38.43;22.93;;;3.90;99.90;;;;;;5019456;28;20479;-65
2022/11/28 19:26:10;;;;;;;36.57;21.60;;;3.90;99.90;;;;;;5033384;28;20444;-65
2022/11/28 19:28:37;;;;;;;38.57;21.87;;;3.90;99.90;;;;;;5040471;28;20488;-65
2022/11/28 19:31:25;;;;;;;40.80;22.87;;;3.90;99.90;;;;;;5035155;28;20407;-65
2022/11/28 19:33:57;;;;;;;37.17;22.67;;;3.90;99.90;;;;;;5038272;28;20536;-65
2022/11/28 19:36:23;;;;;;;40.80;22.80;;;3.90;99.90;;;;;;5034582;28;20965;-65
2022/11/28 19:38:48;;;;;;;43.67;23.73;;;4.00;99.90;;;;;;5038073;28;20497;-66
2022/11/28 19:41:17;;;;;;;46.40;23.37;;;4.00;99.90;;;;;;5038373;28;20410;-66
2022/11/28 19:43:43;;;;;;;36.67;22.37;;;4.00;99.90;;;;;;5030203;28;20176;-65
2022/11/28 19:46:10;;;;;;;37.07;21.97;;;4.00;99.90;;;;;;5039476;28;20416;-66
2022/11/28 19:48:38;;;;;;;40.90;22.53;;;4.00;99.90;;;;;;5022339;28;20459;-66
2022/11/28 19:51:05;;;;;;;38.50;23.57;;;4.00;99.90;;;;;;5033455;28;20761;-67
2022/11/28 19:53:32;;;;;;;33.67;18.27;;;4.00;99.90;;;;;;5037065;28;20410;-66
2022/11/28 19:56:12;;;;;;;37.27;20.93;;;3.90;99.90;;;;;;5038488;28;20405;-65
2022/11/28 19:58:37;;;;;;;37.33;20.73;;;4.00;99.90;;;;;;5036928;28;20422;-65
2022/11/28 20:01:09;;;;;;;36.63;22.43;;;4.00;99.90;;;;;;5041619;28;20451;-66
2022/11/28 20:03:36;;;;;;;39.43;23.03;;;4.00;99.90;;;;;;5039269;28;20184;-66
2022/11/28 20:06:17;;;;;;;31.27;21.00;;;4.00;99.90;;;;;;5041431;28;20777;-66
2022/11/28 20:08:43;;;;;;;33.10;21.97;;;4.00;99.90;;;;;;5030300;28;20453;-65
2022/11/28 20:11:11;;;;;;;36.53;22.10;;;4.00;99.90;;;;;;5033055;28;20398;-67
2022/11/28 20:13:37;;;;;;;35.97;20.30;;;4.00;99.90;;;;;;5032369;28;20444;-66
2022/11/28 20:16:04;;;;;;;32.37;22.30;;;4.00;99.90;;;;;;5038407;28;20402;-65
2022/11/28 20:18:30;;;;;;;40.93;24.00;;;4.00;99.90;;;;;;5044090;28;20607;-64